Archiv-/Tagesdaten

--Timestamp---	Temp	Chill	HIndex	Humid	Dewpt	 Wind 	HiWind	WindDir	Rain 	Barom	Solar	 ET  	 UV 
--------------	----	-----	------	-----	-----	------	------	-------	-----	-----	-----	-----	----
20100828 00:00	17.4	17.4	17.4	83	14.5	14	29	248	0.0	1006.8	0	0.025	0.0
20100828 00:05	17.4	17.4	17.4	83	14.5	11	19	248	0.0	1006.9	0	0.000	0.0
20100828 00:10	17.3	17.3	17.3	83	14.4	16	29	270	0.0	1006.9	0	0.000	0.0
20100828 00:15	17.3	17.3	17.3	83	14.4	14	24	248	0.0	1007.0	0	0.000	0.0
20100828 00:20	17.3	17.3	17.3	83	14.4	14	26	248	0.0	1007.0	0	0.000	0.0
20100828 00:25	17.3	17.3	17.3	84	14.5	13	31	248	0.0	1006.9	0	0.000	0.0
20100828 00:30	17.1	17.1	17.1	85	14.6	13	24	270	0.2	1007.0	0	0.000	0.0
20100828 00:35	16.9	16.9	16.9	86	14.6	10	26	248	0.0	1006.9	0	0.000	0.0
20100828 00:40	16.8	16.8	16.8	86	14.5	11	21	248	0.0	1006.9	0	0.000	0.0
20100828 00:45	16.7	16.7	16.7	87	14.5	10	18	270	0.0	1007.0	0	0.000	0.0
20100828 00:50	16.6	16.6	16.6	87	14.4	11	21	270	0.2	1007.0	0	0.000	0.0
20100828 00:55	16.5	16.5	16.5	88	14.5	10	19	270	0.0	1007.0	0	0.000	0.0
20100828 01:00	16.4	16.4	16.4	89	14.6	10	18	270	0.4	1007.4	0	0.025	0.0
20100828 01:05	16.3	16.3	16.3	89	14.5	13	37	270	2.2	1007.9	0	0.000	0.0
20100828 01:10	16.1	16.1	16.1	89	14.2	16	34	270	0.8	1007.7	0	0.000	0.0
20100828 01:15	15.7	15.7	15.7	89	13.9	18	26	270	0.2	1007.9	0	0.000	0.0
20100828 01:20	15.3	15.3	15.3	89	13.5	16	26	270	0.2	1007.9	0	0.000	0.0
20100828 01:25	15.0	15.0	15.0	89	13.2	14	26	270	0.0	1007.4	0	0.000	0.0
20100828 01:30	15.0	15.0	15.0	90	13.4	10	18	270	0.0	1007.4	0	0.000	0.0
20100828 01:35	14.9	14.9	14.9	90	13.3	8	14	270	0.0	1007.4	0	0.000	0.0
20100828 01:40	14.9	14.9	14.9	90	13.3	10	18	248	0.0	1007.6	0	0.000	0.0
20100828 01:45	14.8	14.8	14.8	91	13.4	8	16	248	0.2	1007.4	0	0.000	0.0
20100828 01:50	14.9	14.9	14.9	91	13.4	8	14	248	0.0	1007.5	0	0.000	0.0
20100828 01:55	14.9	14.9	14.9	91	13.5	10	18	248	0.0	1007.6	0	0.000	0.0
20100828 02:00	15.0	15.0	15.0	91	13.5	10	19	248	0.0	1007.7	0	0.025	0.0
20100828 02:05	15.0	15.0	15.0	91	13.5	10	18	248	0.0	1007.9	0	0.000	0.0
20100828 02:10	15.0	15.0	15.0	91	13.5	10	21	270	0.0	1007.6	0	0.000	0.0
20100828 02:15	15.0	15.0	15.0	91	13.5	10	23	270	0.0	1007.6	0	0.000	0.0
20100828 02:20	15.0	15.0	15.0	92	13.7	8	16	292	0.4	1007.5	0	0.000	0.0
20100828 02:25	15.0	15.0	15.0	92	13.7	8	19	270	0.2	1007.3	0	0.000	0.0
20100828 02:30	15.1	15.1	15.1	92	13.8	8	16	292	0.0	1007.2	0	0.000	0.0
20100828 02:35	15.1	15.1	15.1	92	13.8	8	16	292	0.0	1007.3	0	0.000	0.0
20100828 02:40	15.2	15.2	15.2	92	13.9	6	11	270	0.0	1007.2	0	0.000	0.0
20100828 02:45	15.1	15.1	15.1	92	13.8	6	11	270	0.0	1007.3	0	0.000	0.0
20100828 02:50	15.2	15.2	15.2	92	13.9	6	11	270	0.0	1007.3	0	0.000	0.0
20100828 02:55	15.2	15.2	15.2	92	13.9	10	18	270	0.0	1007.5	0	0.000	0.0
20100828 03:00	15.2	15.2	15.2	92	13.9	11	16	270	0.0	1007.5	0	0.025	0.0
20100828 03:05	15.3	15.3	15.3	92	14.0	11	23	248	0.0	1007.1	0	0.000	0.0
20100828 03:10	15.2	15.2	15.2	92	13.9	11	19	270	0.0	1007.2	0	0.000	0.0
20100828 03:15	15.2	15.2	15.2	92	13.9	11	21	270	0.0	1007.2	0	0.000	0.0
20100828 03:20	15.2	15.2	15.2	92	13.9	11	23	270	0.0	1007.4	0	0.000	0.0
20100828 03:25	15.3	15.3	15.3	92	14.0	13	23	270	0.0	1007.5	0	0.000	0.0
20100828 03:30	15.3	15.3	15.3	91	13.8	14	24	270	0.0	1007.4	0	0.000	0.0
20100828 03:35	15.3	15.3	15.3	91	13.8	11	19	248	0.0	1007.5	0	0.000	0.0
20100828 03:40	15.2	15.2	15.2	91	13.8	11	19	248	0.0	1007.5	0	0.000	0.0
20100828 03:45	15.3	15.3	15.3	91	13.8	11	21	248	0.0	1007.5	0	0.000	0.0
20100828 03:50	15.2	15.2	15.2	91	13.8	10	16	248	0.0	1007.5	0	0.000	0.0
20100828 03:55	15.2	15.2	15.2	91	13.8	11	21	270	0.0	1007.6	0	0.000	0.0
20100828 04:00	15.3	15.3	15.3	91	13.8	13	26	270	0.0	1007.7	0	0.025	0.0
20100828 04:05	15.3	15.3	15.3	91	13.8	11	21	270	0.0	1007.4	0	0.000	0.0
20100828 04:10	15.3	15.3	15.3	91	13.8	11	21	270	0.0	1007.4	0	0.000	0.0
20100828 04:15	15.3	15.3	15.3	91	13.8	10	26	270	0.0	1007.4	0	0.000	0.0
20100828 04:20	15.3	15.3	15.3	91	13.8	10	21	270	0.0	1007.3	0	0.000	0.0
20100828 04:25	15.3	15.3	15.3	91	13.8	8	18	270	0.0	1007.3	0	0.000	0.0
20100828 04:30	15.2	15.2	15.2	91	13.7	8	14	270	0.2	1007.4	0	0.000	0.0
20100828 04:35	15.1	15.1	15.1	91	13.7	8	16	248	0.0	1007.4	0	0.000	0.0
20100828 04:40	15.1	15.1	15.1	91	13.6	8	14	270	0.0	1007.6	0	0.000	0.0
20100828 04:45	15.1	15.1	15.1	91	13.7	8	18	270	0.0	1007.6	0	0.000	0.0
20100828 04:50	15.1	15.1	15.1	91	13.7	10	19	248	0.0	1007.6	0	0.000	0.0
20100828 04:55	15.1	15.1	15.1	91	13.6	11	21	270	0.0	1007.7	0	0.000	0.0
20100828 05:00	15.1	15.1	15.1	91	13.6	10	19	270	0.0	1007.8	0	0.025	0.0
20100828 05:05	15.1	15.1	15.1	91	13.6	10	19	270	0.0	1007.9	0	0.000	0.0
20100828 05:10	15.0	15.0	15.0	91	13.5	8	16	248	0.0	1007.8	0	0.000	0.0
20100828 05:15	15.0	15.0	15.0	91	13.5	6	14	270	0.0	1007.6	0	0.000	0.0
20100828 05:20	15.0	15.0	15.0	91	13.5	8	16	270	0.0	1007.7	0	0.000	0.0
20100828 05:25	15.0	15.0	15.0	91	13.5	8	19	270	0.0	1007.9	0	0.000	0.0
20100828 05:30	15.0	15.0	15.0	90	13.4	13	19	270	0.0	1007.9	0	0.000	0.0
20100828 05:35	15.0	15.0	15.0	90	13.4	14	24	270	0.0	1007.9	0	0.000	0.0
20100828 05:40	15.0	15.0	15.0	90	13.4	13	26	270	0.0	1007.9	0	0.000	0.0
20100828 05:45	15.0	15.0	15.0	90	13.4	14	29	270	0.0	1008.0	0	0.000	0.0
20100828 05:50	15.0	15.0	15.0	91	13.5	14	26	292	1.0	1008.3	0	0.000	0.0
20100828 05:55	14.7	14.7	14.7	90	13.1	16	32	315	0.0	1008.2	0	0.000	0.0
20100828 06:00	14.6	14.6	14.6	90	12.9	13	26	315	0.0	1008.3	0	0.025	0.0
20100828 06:05	14.4	14.4	14.4	91	13.0	13	29	315	0.0	1008.5	0	0.000	0.0
20100828 06:10	14.3	14.3	14.3	91	12.8	10	21	292	0.0	1008.4	0	0.000	0.0
20100828 06:15	14.2	14.2	14.2	91	12.7	10	24	315	0.2	1008.6	0	0.000	0.0
20100828 06:20	14.1	14.1	14.1	91	12.7	10	18	292	0.0	1008.8	0	0.000	0.0
20100828 06:25	14.1	14.1	14.1	91	12.6	6	11	315	0.0	1008.7	0	0.000	0.0
20100828 06:30	14.1	14.1	14.1	91	12.6	8	18	315	0.0	1008.9	0	0.000	0.0
20100828 06:35	14.0	14.0	14.0	91	12.6	6	18	315	0.0	1008.9	0	0.000	0.0
20100828 06:40	13.8	13.8	13.8	91	12.3	6	18	315	0.0	1009.1	0	0.000	0.0
20100828 06:45	13.6	13.6	13.6	91	12.1	5	11	315	0.0	1009.2	0	0.000	0.0
20100828 06:50	13.4	13.4	13.4	90	11.8	8	19	315	0.0	1009.4	0	0.000	0.0
20100828 06:55	13.3	13.3	13.3	91	11.8	6	14	315	0.0	1009.6	0	0.000	0.0
20100828 07:00	13.1	13.1	13.1	90	11.5	6	21	292	0.0	1009.7	0	0.000	0.0
20100828 07:05	12.9	12.9	12.9	90	11.3	8	27	315	0.0	1009.9	0	0.000	0.0
20100828 07:10	12.9	12.9	12.9	91	11.5	8	18	315	0.0	1010.1	2	0.000	0.0
20100828 07:15	12.8	12.8	12.8	91	11.3	5	11	292	0.0	1010.0	8	0.000	0.0
20100828 07:20	12.7	12.7	12.7	91	11.3	6	18	292	0.0	1010.1	11	0.000	0.0
20100828 07:25	12.7	12.7	12.7	91	11.3	3	11	292	0.0	1010.2	8	0.000	0.0
20100828 07:30	12.7	12.7	12.7	91	11.3	5	11	292	0.0	1010.3	8	0.000	0.0
20100828 07:35	12.7	12.7	12.7	92	11.4	3	11	315	0.0	1010.3	13	0.000	0.0
20100828 07:40	12.7	12.7	12.7	92	11.4	3	10	292	0.0	1010.4	14	0.000	0.0
20100828 07:45	12.6	12.6	12.6	92	11.3	3	8	292	0.0	1010.5	14	0.000	0.0
20100828 07:50	12.6	12.6	12.6	91	11.2	2	10	292	0.0	1010.6	15	0.000	0.0
20100828 07:55	12.5	12.5	12.5	91	11.1	6	21	315	0.0	1010.6	20	0.000	0.0
20100828 08:00	12.4	12.4	12.4	90	10.8	5	11	315	0.0	1010.7	25	0.000	0.0
20100828 08:05	12.3	12.3	12.3	91	10.9	3	10	315	0.0	1010.9	47	0.000	0.0
20100828 08:10	12.3	12.3	12.3	90	10.7	6	18	315	0.0	1011.0	46	0.000	0.0
20100828 08:15	12.3	12.3	12.3	90	10.7	6	16	292	0.0	1011.0	64	0.000	0.0
20100828 08:20	12.4	12.4	12.4	90	10.8	5	16	315	0.0	1011.1	49	0.000	0.0
20100828 08:25	12.4	12.4	12.4	90	10.8	2	13	315	0.0	1011.2	33	0.000	0.0
20100828 08:30	12.4	12.4	12.4	90	10.8	2	10	315	0.0	1011.2	42	0.000	0.0
20100828 08:35	12.6	12.6	12.6	91	11.1	2	6	45	0.0	1011.1	73	0.000	0.1
20100828 08:40	12.7	12.7	12.7	90	11.1	8	21	315	0.0	1011.2	91	0.000	0.3
20100828 08:45	12.6	12.6	12.6	90	11.0	10	23	315	0.0	1011.3	114	0.000	0.7
20100828 08:50	12.7	12.7	12.7	90	11.1	6	21	292	0.0	1011.4	103	0.000	0.7
20100828 08:55	12.7	12.7	12.7	89	11.0	13	24	315	0.0	1011.5	105	0.000	0.7
20100828 09:00	12.8	12.8	12.8	90	11.2	8	21	292	0.0	1011.6	138	0.051	0.8
20100828 09:05	12.8	12.8	12.8	89	11.1	8	23	315	0.0	1011.6	105	0.000	0.6
20100828 09:10	12.8	12.8	12.8	88	10.9	11	23	315	0.0	1011.9	90	0.000	0.6
20100828 09:15	12.8	12.8	12.8	88	10.8	11	24	315	0.0	1011.9	75	0.000	0.3
20100828 09:20	12.8	12.8	12.8	88	10.8	11	23	315	0.0	1012.0	117	0.000	0.9
20100828 09:25	12.8	12.8	12.8	87	10.7	13	27	315	0.0	1012.1	166	0.000	1.2
20100828 09:30	12.9	12.9	12.9	87	10.8	11	26	315	0.0	1012.2	174	0.000	1.3
20100828 09:35	13.0	13.0	13.0	87	10.9	11	21	315	0.0	1012.3	140	0.000	1.0
20100828 09:40	13.1	13.1	13.1	86	10.8	11	21	315	0.0	1012.3	154	0.000	1.3
20100828 09:45	13.1	13.1	13.1	86	10.8	6	21	315	0.0	1012.3	136	0.000	1.2
20100828 09:50	13.1	13.1	13.1	85	10.6	13	21	315	0.0	1012.4	94	0.000	0.8
20100828 09:55	13.1	13.1	13.1	85	10.6	8	19	315	0.0	1012.5	64	0.000	0.4
20100828 10:00	13.1	13.1	13.1	86	10.8	10	24	315	0.0	1012.5	78	0.076	0.5
20100828 10:05	13.0	13.0	13.0	86	10.7	13	21	315	0.0	1012.9	60	0.000	0.2
20100828 10:10	12.9	12.9	12.9	86	10.7	11	23	315	0.0	1013.1	109	0.000	0.8
20100828 10:15	13.0	13.0	13.0	86	10.7	10	19	315	0.0	1013.2	181	0.000	1.2
20100828 10:20	13.1	13.1	13.1	85	10.6	11	19	315	0.0	1013.2	155	0.000	1.2
20100828 10:25	13.1	13.1	13.1	85	10.6	11	21	315	0.0	1013.3	129	0.000	1.0
20100828 10:30	13.2	13.2	13.2	86	10.9	6	16	292	0.0	1013.4	75	0.000	0.6
20100828 10:35	13.2	13.2	13.2	85	10.7	10	19	292	0.0	1013.4	68	0.000	0.6
20100828 10:40	13.1	13.1	13.1	86	10.8	11	23	292	0.0	1013.6	45	0.000	0.1
20100828 10:45	13.0	13.0	13.0	84	10.4	16	27	315	0.0	1013.8	52	0.000	0.2
20100828 10:50	12.8	12.8	12.8	85	10.4	16	27	315	0.0	1014.0	33	0.000	0.0
20100828 10:55	12.6	12.6	12.6	85	10.2	6	23	292	0.0	1014.1	26	0.000	0.0
20100828 11:00	12.3	12.3	12.3	86	10.1	10	23	315	0.0	1014.3	31	0.051	0.0
20100828 11:05	12.1	12.1	12.1	86	9.8	13	26	315	0.2	1014.5	44	0.000	0.0
20100828 11:10	11.9	11.9	11.9	86	9.6	14	24	315	0.0	1014.6	64	0.000	0.5
20100828 11:15	11.8	11.8	11.8	86	9.6	11	21	315	0.0	1014.7	103	0.000	1.1
20100828 11:20	11.8	11.8	11.8	86	9.5	13	27	315	0.0	1014.7	105	0.000	1.1
20100828 11:25	11.8	11.8	11.8	86	9.5	10	23	315	0.0	1014.8	126	0.000	1.3
20100828 11:30	11.8	11.8	11.8	85	9.4	13	24	315	0.0	1014.8	121	0.000	1.2
20100828 11:35	11.8	11.8	11.8	84	9.2	10	23	315	0.0	1014.9	97	0.000	1.0
20100828 11:40	11.7	11.7	11.7	83	8.9	10	24	315	0.0	1015.1	83	0.000	0.8
20100828 11:45	11.7	11.7	11.7	83	8.9	6	23	315	0.0	1015.1	93	0.000	0.9
20100828 11:50	11.7	11.7	11.7	83	8.9	10	23	292	0.0	1015.2	109	0.000	1.1
20100828 11:55	11.8	11.8	11.8	84	9.2	8	23	315	0.0	1015.3	134	0.000	1.3
20100828 12:00	11.9	11.9	11.9	83	9.1	8	21	315	0.0	1015.3	145	0.076	1.4
20100828 12:05	11.9	11.9	11.9	84	9.3	13	23	315	0.0	1015.4	169	0.000	1.6
20100828 12:10	12.0	12.0	12.0	85	9.6	10	19	315	0.0	1015.4	197	0.000	1.9
20100828 12:15	12.1	12.1	12.1	85	9.7	11	24	315	0.0	1015.4	236	0.000	2.2
20100828 12:20	12.2	12.2	12.2	84	9.6	10	21	315	0.0	1015.4	231	0.000	2.1
20100828 12:25	12.3	12.3	12.3	83	9.5	10	21	315	0.0	1015.4	135	0.000	1.2
20100828 12:30	12.3	12.3	12.3	84	9.7	10	23	315	0.0	1015.4	136	0.000	1.2
20100828 12:35	12.3	12.3	12.3	84	9.7	10	19	315	0.0	1015.6	111	0.000	1.1
20100828 12:40	12.3	12.3	12.3	84	9.7	8	19	292	0.0	1015.6	150	0.000	1.4
20100828 12:45	12.4	12.4	12.4	85	9.9	11	21	315	0.0	1015.7	113	0.000	1.1
20100828 12:50	12.3	12.3	12.3	85	9.9	8	19	315	0.0	1015.6	107	0.000	1.0
20100828 12:55	12.3	12.3	12.3	84	9.7	13	19	315	0.0	1015.6	204	0.000	2.0
20100828 13:00	12.3	12.3	12.3	85	9.9	11	19	315	0.0	1015.6	255	0.102	2.5
20100828 13:05	12.5	12.5	12.5	83	9.7	13	23	315	0.0	1015.8	300	0.000	2.9
20100828 13:10	12.8	12.8	12.8	83	10.0	8	16	270	0.0	1015.9	278	0.000	2.7
20100828 13:15	13.0	13.0	13.0	82	10.0	10	16	292	0.0	1015.9	260	0.000	2.5
20100828 13:20	13.1	13.1	13.1	82	10.1	8	16	292	0.0	1015.9	152	0.000	1.4
20100828 13:25	13.2	13.2	13.2	83	10.3	6	16	292	0.0	1015.9	152	0.000	1.6
20100828 13:30	13.2	13.2	13.2	83	10.3	8	16	270	0.0	1015.9	174	0.000	1.8
20100828 13:35	13.1	13.1	13.1	83	10.3	8	16	270	0.0	1016.0	101	0.000	1.0
20100828 13:40	13.1	13.1	13.1	84	10.4	8	16	270	0.0	1016.1	89	0.000	0.9
20100828 13:45	13.0	13.0	13.0	82	10.0	10	16	292	0.0	1016.1	123	0.000	1.4
20100828 13:50	12.9	12.9	12.9	83	10.1	10	18	292	0.0	1016.2	103	0.000	1.1
20100828 13:55	13.0	13.0	13.0	82	10.0	8	18	292	0.0	1016.1	145	0.000	1.5
20100828 14:00	13.1	13.1	13.1	80	9.7	10	21	292	0.0	1016.0	163	0.102	1.4
20100828 14:05	13.1	13.1	13.1	79	9.5	10	19	315	0.0	1016.0	142	0.000	1.2
20100828 14:10	13.2	13.2	13.2	79	9.6	11	23	315	0.0	1016.1	107	0.000	1.1
20100828 14:15	13.1	13.1	13.1	78	9.3	13	24	315	0.0	1016.1	89	0.000	0.9
20100828 14:20	13.0	13.0	13.0	78	9.3	14	24	315	0.0	1016.1	87	0.000	0.9
20100828 14:25	12.9	12.9	12.9	78	9.1	16	29	315	0.0	1016.1	70	0.000	0.7
20100828 14:30	12.8	12.8	12.8	79	9.3	13	23	315	0.0	1016.2	60	0.000	0.4
20100828 14:35	12.7	12.7	12.7	79	9.1	8	23	315	0.0	1016.3	55	0.000	0.3
20100828 14:40	12.5	12.5	12.5	80	9.1	10	27	315	0.0	1016.3	80	0.000	0.9
20100828 14:45	12.3	12.3	12.3	81	9.2	10	23	315	0.0	1016.5	109	0.000	1.1
20100828 14:50	12.3	12.3	12.3	81	9.2	8	18	315	0.0	1016.5	87	0.000	0.9
20100828 14:55	12.3	12.3	12.3	82	9.3	10	26	315	0.0	1016.6	73	0.000	0.7
20100828 15:00	12.2	12.2	12.2	83	9.4	14	21	315	0.0	1016.5	86	0.076	0.8
20100828 15:05	12.2	12.2	12.2	84	9.5	8	18	315	0.0	1016.4	157	0.000	1.4
20100828 15:10	12.3	12.3	12.3	83	9.5	8	16	292	0.0	1016.5	314	0.000	2.5
20100828 15:15	12.8	12.8	12.8	83	10.0	10	21	315	0.0	1016.2	485	0.000	4.4
20100828 15:20	13.6	13.6	13.6	80	10.2	13	24	315	0.0	1016.1	798	0.000	4.7
20100828 15:25	13.9	13.9	13.9	76	9.8	16	27	315	0.0	1016.1	661	0.000	4.7
20100828 15:30	14.2	14.2	14.2	76	10.0	13	24	292	0.0	1016.0	545	0.000	3.9
20100828 15:35	14.3	14.3	14.3	75	9.9	11	19	315	0.0	1016.0	225	0.000	2.4
20100828 15:40	14.1	14.1	14.1	75	9.7	13	24	292	0.0	1016.1	176	0.000	1.7
20100828 15:45	13.8	13.8	13.8	74	9.3	14	27	315	0.0	1016.0	199	0.000	1.8
20100828 15:50	13.7	13.7	13.7	76	9.6	11	24	270	0.0	1016.0	175	0.000	1.5
20100828 15:55	13.7	13.7	13.7	77	9.8	13	21	292	0.0	1016.1	228	0.000	1.8
20100828 16:00	13.7	13.7	13.7	76	9.6	13	26	315	0.0	1016.0	144	0.203	1.2
20100828 16:05	13.7	13.7	13.7	76	9.5	11	21	315	0.0	1015.9	151	0.000	1.1
20100828 16:10	13.6	13.6	13.6	77	9.7	11	19	315	0.0	1015.8	202	0.000	1.3
20100828 16:15	13.7	13.7	13.7	77	9.7	6	18	315	0.0	1015.9	153	0.000	1.4
20100828 16:20	13.6	13.6	13.6	76	9.5	6	16	315	0.0	1015.9	114	0.000	1.2
20100828 16:25	13.6	13.6	13.6	77	9.6	8	18	315	0.0	1016.0	119	0.000	0.8
20100828 16:30	13.6	13.6	13.6	77	9.6	8	16	315	0.0	1016.0	243	0.000	1.3
20100828 16:35	13.7	13.7	13.7	78	10.0	8	16	315	0.0	1015.9	196	0.000	1.3
20100828 16:40	13.8	13.8	13.8	77	9.9	10	19	292	0.0	1015.8	147	0.000	1.0
20100828 16:45	13.9	13.9	13.9	77	10.0	10	18	292	0.0	1015.7	244	0.000	1.3
20100828 16:50	14.0	14.0	14.0	76	9.8	11	24	315	0.0	1015.9	143	0.000	1.3
20100828 16:55	14.1	14.1	14.1	76	9.9	10	23	270	0.0	1016.0	239	0.000	1.8
20100828 17:00	14.6	14.6	14.6	73	9.8	14	26	292	0.0	1015.9	356	0.127	1.7
20100828 17:05	14.7	14.7	14.7	72	9.7	14	23	292	0.0	1015.8	237	0.000	1.6
20100828 17:10	14.8	14.8	14.8	72	9.8	11	19	292	0.0	1015.8	557	0.000	1.6
20100828 17:15	15.0	15.0	15.0	68	9.1	13	21	292	0.0	1015.8	265	0.000	1.1
20100828 17:20	15.2	15.2	15.2	68	9.3	13	23	292	0.0	1015.8	367	0.000	0.9
20100828 17:25	15.4	15.4	15.4	69	9.8	13	24	270	0.0	1015.7	498	0.000	1.3
20100828 17:30	15.8	15.8	15.8	65	9.2	13	23	315	0.0	1015.7	452	0.000	1.3
20100828 17:35	15.9	15.9	15.9	66	9.6	13	24	315	0.0	1015.6	426	0.000	1.2
20100828 17:40	15.9	15.9	15.9	64	9.1	14	24	292	0.0	1015.6	387	0.000	1.1
20100828 17:45	16.0	16.0	16.0	62	8.7	16	26	292	0.0	1015.6	376	0.000	1.1
20100828 17:50	16.1	16.1	16.1	61	8.5	14	26	292	0.0	1015.7	332	0.000	1.0
20100828 17:55	15.9	15.9	15.9	59	7.9	14	27	292	0.0	1015.6	303	0.000	0.9
20100828 18:00	15.8	15.8	15.8	59	7.8	16	29	315	0.0	1015.6	291	0.254	0.8
20100828 18:05	15.7	15.7	15.7	61	8.2	16	29	315	0.0	1015.8	267	0.000	0.7
20100828 18:10	15.6	15.6	15.6	61	8.1	14	26	292	0.0	1015.9	256	0.000	0.7
20100828 18:15	15.3	15.3	15.3	62	8.0	14	26	292	0.0	1015.9	88	0.000	0.6
20100828 18:20	15.0	15.0	15.0	64	8.2	14	26	292	0.0	1016.0	173	0.000	0.5
20100828 18:25	15.0	15.0	15.0	64	8.2	13	23	292	0.0	1015.9	233	0.000	0.4
20100828 18:30	15.0	15.0	15.0	64	8.2	10	19	292	0.0	1016.0	190	0.000	0.3
20100828 18:35	15.0	15.0	15.0	64	8.2	11	24	292	0.0	1015.9	187	0.000	0.0
20100828 18:40	15.0	15.0	15.0	63	8.0	14	27	292	0.0	1015.9	167	0.000	0.0
20100828 18:45	15.0	15.0	15.0	60	7.3	16	27	292	0.0	1015.9	142	0.000	0.0
20100828 18:50	14.7	14.7	14.7	59	6.7	18	29	292	0.0	1016.0	47	0.000	0.0
20100828 18:55	14.4	14.4	14.4	61	7.0	16	32	292	0.0	1016.0	42	0.000	0.0
20100828 19:00	14.3	14.3	14.3	62	7.1	16	31	292	0.0	1016.1	40	0.152	0.0
20100828 19:05	14.2	14.2	14.2	63	7.2	13	24	292	0.0	1016.2	38	0.000	0.0
20100828 19:10	14.1	14.1	14.1	64	7.3	11	27	292	0.0	1016.4	34	0.000	0.0
20100828 19:15	13.9	13.9	13.9	65	7.4	14	26	292	0.0	1016.3	31	0.000	0.0
20100828 19:20	13.8	13.8	13.8	64	7.1	11	24	292	0.0	1016.4	29	0.000	0.0
20100828 19:25	13.7	13.7	13.7	65	7.2	11	18	292	0.0	1016.4	26	0.000	0.0
20100828 19:30	13.6	13.6	13.6	66	7.3	10	18	292	0.0	1016.4	18	0.000	0.0
20100828 19:35	13.4	13.4	13.4	66	7.2	10	21	292	0.0	1016.5	15	0.000	0.0
20100828 19:40	13.3	13.3	13.3	67	7.3	11	19	292	0.0	1016.6	18	0.000	0.0
20100828 19:45	13.2	13.2	13.2	68	7.4	10	19	292	0.0	1016.6	16	0.000	0.0
20100828 19:50	13.1	13.1	13.1	68	7.3	11	24	292	0.0	1016.8	9	0.000	0.0
20100828 19:55	12.9	12.9	12.9	69	7.4	13	19	292	0.0	1016.9	5	0.000	0.0
20100828 20:00	12.8	12.8	12.8	69	7.3	11	21	292	0.0	1017.0	0	0.051	0.0
20100828 20:05	12.8	12.8	12.8	70	7.4	11	19	292	0.0	1016.9	0	0.000	0.0
20100828 20:10	12.8	12.8	12.8	70	7.4	11	18	292	0.0	1017.0	0	0.000	0.0
20100828 20:15	12.7	12.7	12.7	71	7.6	10	19	292	0.0	1017.2	0	0.000	0.0
20100828 20:20	12.7	12.7	12.7	71	7.5	11	19	292	0.0	1017.3	0	0.000	0.0
20100828 20:25	12.6	12.6	12.6	72	7.6	8	18	292	0.0	1017.3	0	0.000	0.0
20100828 20:30	12.4	12.4	12.4	72	7.5	13	21	292	0.0	1017.4	0	0.000	0.0
20100828 20:35	12.3	12.3	12.3	73	7.6	10	18	292	0.0	1017.5	0	0.000	0.0
20100828 20:40	12.2	12.2	12.2	74	7.7	11	18	292	0.0	1017.6	0	0.000	0.0
20100828 20:45	12.1	12.1	12.1	74	7.6	10	19	292	0.0	1017.7	0	0.000	0.0
20100828 20:50	12.1	12.1	12.1	75	7.8	11	21	292	0.0	1017.8	0	0.000	0.0
20100828 20:55	12.0	12.0	12.0	75	7.7	11	18	292	0.0	1017.8	0	0.000	0.0
20100828 21:00	12.0	12.0	12.0	76	7.9	11	19	292	0.0	1018.0	0	0.025	0.0
20100828 21:05	11.9	11.9	11.9	76	7.8	8	16	292	0.0	1017.9	0	0.000	0.0
20100828 21:10	11.9	11.9	11.9	76	7.8	10	16	292	0.0	1018.1	0	0.000	0.0
20100828 21:15	11.8	11.8	11.8	77	7.9	8	13	292	0.0	1018.2	0	0.000	0.0
20100828 21:20	11.7	11.7	11.7	77	7.8	6	10	292	0.0	1018.2	0	0.000	0.0
20100828 21:25	11.6	11.6	11.6	78	7.9	5	8	292	0.0	1018.2	0	0.000	0.0
20100828 21:30	11.5	11.5	11.5	79	8.0	6	11	292	0.0	1018.3	0	0.000	0.0
20100828 21:35	11.3	11.3	11.3	80	8.0	5	8	292	0.0	1018.2	0	0.000	0.0
20100828 21:40	11.2	11.2	11.2	80	7.8	6	10	292	0.0	1018.3	0	0.000	0.0
20100828 21:45	11.1	11.1	11.1	81	7.9	5	10	292	0.0	1018.3	0	0.000	0.0
20100828 21:50	10.9	10.9	10.9	81	7.8	6	14	270	0.0	1018.4	0	0.000	0.0
20100828 21:55	10.9	10.9	10.9	80	7.6	5	10	292	0.0	1018.5	0	0.000	0.0
20100828 22:00	10.8	10.8	10.8	80	7.5	6	10	270	0.0	1018.5	0	0.025	0.0
20100828 22:05	10.8	10.8	10.8	80	7.5	6	8	270	0.0	1018.7	0	0.000	0.0
20100828 22:10	10.7	10.7	10.7	80	7.4	5	10	270	0.0	1018.7	0	0.000	0.0
20100828 22:15	10.6	10.6	10.6	80	7.3	5	10	270	0.0	1018.8	0	0.000	0.0
20100828 22:20	10.6	10.6	10.6	80	7.2	5	11	270	0.0	1018.7	0	0.000	0.0
20100828 22:25	10.6	10.6	10.6	80	7.2	5	8	270	0.0	1018.7	0	0.000	0.0
20100828 22:30	10.5	10.5	10.5	80	7.2	5	10	270	0.0	1018.8	0	0.000	0.0
20100828 22:35	10.4	10.4	10.4	80	7.1	3	8	292	0.0	1018.8	0	0.000	0.0
20100828 22:40	10.4	10.4	10.4	81	7.3	5	11	292	0.0	1018.8	0	0.000	0.0
20100828 22:45	10.3	10.3	10.3	81	7.2	3	8	270	0.0	1018.8	0	0.000	0.0
20100828 22:50	10.3	10.3	10.3	81	7.2	5	6	292	0.0	1018.9	0	0.000	0.0
20100828 22:55	10.2	10.2	10.2	82	7.3	5	8	292	0.0	1018.8	0	0.000	0.0
20100828 23:00	10.1	10.1	10.1	82	7.2	5	8	292	0.0	1018.9	0	0.025	0.0
20100828 23:05	10.1	10.1	10.1	83	7.3	3	8	270	0.0	1019.0	0	0.000	0.0
20100828 23:10	10.0	10.0	10.0	83	7.2	5	8	270	0.0	1019.0	0	0.000	0.0
20100828 23:15	9.9	9.3	9.9	84	7.4	6	8	270	0.0	1019.1	0	0.000	0.0
20100828 23:20	9.9	9.9	9.9	84	7.3	5	8	270	0.0	1019.1	0	0.000	0.0
20100828 23:25	9.9	9.9	9.9	85	7.5	5	6	270	0.0	1019.1	0	0.000	0.0
20100828 23:30	9.9	9.9	9.9	85	7.5	5	8	270	0.0	1019.0	0	0.000	0.0
20100828 23:35	9.8	9.8	9.8	85	7.4	5	8	270	0.0	1019.0	0	0.000	0.0
20100828 23:40	9.8	9.8	9.8	85	7.4	5	8	270	0.0	1019.1	0	0.000	0.0
20100828 23:45	9.8	9.1	9.8	85	7.4	6	10	248	0.0	1019.1	0	0.000	0.0
20100828 23:50	9.8	9.8	9.8	85	7.4	5	8	248	0.0	1019.1	0	0.000	0.0
20100828 23:55	9.8	9.8	9.8	84	7.3	5	10	248	0.0	1019.1	0	0.000	0.0
--------------------------------------------------------------------------------------------------------------------
Please note the license to use and transfer of this data:
http://creativecommons.org/licenses/by-nc-sa/3.0/deed.en

Bitte beachten sie die Lizenz zur Verwertung und Weitergabe der Daten:
http://creativecommons.org/licenses/by-nc-sa/3.0/deed.de



Please note the license to use and transfer of this data:
http://creativecommons.org/licenses/by-nc-sa/3.0/deed.en

Bitte beachten sie die Lizenz zur Verwertung und Weitergabe der Daten:
http://creativecommons.org/licenses/by-nc-sa/3.0/deed.de

zurück zur Übersicht der Archivdaten (Monats und Tagesdaten)

Cookies helfen bei der Bereitstellung von Inhalten. Durch die Nutzung dieser Seiten erklärst du dich damit einverstanden, dass Cookies auf deinem Rechner gespeichert werden. Weitere Information